Reelsville, Indiana
Current Conditions -  °F | °C
As of 11:55 AM on Friday 28 Nov 2014 (Local Time) from K4I7 Reporting Station
Broken Clouds Broken Clouds  
Wind Chill: 20°   Ceiling: 12000
Heat Index: 28°   Visibility: 10mi
Dew Point: 21°   Wind: 9mph
Humidity: 74%   Direction: 170°S
Pressure: 30.27"   Gusts: NA
Location:  39.56°N, 86.97°W
Report Text: K4I7 281655Z AUTO 17008KT 10SM BKN120 M02/M06 A3027 RMK AO2
Loading
Personal Weather Stations






























Interactive Weather Map New forecast layout! Learn more

10-Day Weather Forecast

Advertisements
Track Severe Weather on mobile